Time;durP1;ratioP1;P1;durP2;ratioP2;P2;SDS_P1;SDS_P2;PMS_P1;PMS_P2;Temp;Humidity;BMP_temperature;BMP_pressure;BME280_temperature;BME280_humidity;BME280_pressure;Samples;Min_cycle;Max_cycle;Signal;HPM_P1;HPM_P2
2021/09/26 04:30:42;;;;;;;13.90;8.27;;;14.70;99.90;;;;;;6141142;22;20361;31
2021/09/26 04:33:07;;;;;;;10.27;8.53;;;14.70;99.90;;;;;;4930106;29;20488;-80
2021/09/26 04:35:33;;;;;;;9.00;8.13;;;14.60;99.90;;;;;;4936137;29;20496;-80
2021/09/26 04:37:58;;;;;;;9.37;8.47;;;14.70;99.90;;;;;;4938423;29;20685;-80
2021/09/26 04:40:25;;;;;;;12.60;9.30;;;14.60;99.90;;;;;;4939086;29;20260;-80
2021/09/26 04:42:50;;;;;;;9.70;8.73;;;14.60;99.90;;;;;;4920509;29;20210;-80
2021/09/26 04:45:16;;;;;;;12.00;9.60;;;14.50;99.90;;;;;;4920030;29;20414;-79
2021/09/26 04:47:41;;;;;;;8.87;7.80;;;14.50;99.90;;;;;;4919938;29;20182;-80
2021/09/26 04:50:07;;;;;;;12.40;8.57;;;14.50;99.90;;;;;;4926726;29;20198;-81
2021/09/26 04:52:33;;;;;;;9.17;8.27;;;14.40;99.90;;;;;;4932164;29;20227;-81
2021/09/26 04:55:00;;;;;;;10.63;8.47;;;14.40;99.90;;;;;;4921065;29;20418;-80
2021/09/26 04:57:26;;;;;;;8.67;7.87;;;14.40;99.90;;;;;;4926237;29;20946;-77
2021/09/26 04:59:51;;;;;;;15.87;8.60;;;14.40;99.90;;;;;;4918572;29;20436;-80
2021/09/26 05:02:17;;;;;;;9.10;8.20;;;14.30;99.90;;;;;;4917791;29;20213;-79
2021/09/26 05:04:42;;;;;;;15.00;9.60;;;14.30;99.90;;;;;;4918853;29;20610;-80
2021/09/26 05:07:08;;;;;;;12.27;9.37;;;14.30;99.90;;;;;;4917201;29;20679;-78
2021/09/26 05:09:34;;;;;;;10.30;8.80;;;14.20;99.90;;;;;;4916840;29;20170;-76
2021/09/26 05:11:59;;;;;;;10.57;7.67;;;14.20;99.90;;;;;;4916321;29;20232;-79
2021/09/26 05:14:25;;;;;;;9.40;8.23;;;14.20;99.90;;;;;;4916260;29;20182;-79
2021/09/26 05:16:50;;;;;;;10.93;8.97;;;14.10;99.90;;;;;;4916277;29;20626;-80
2021/09/26 05:19:16;;;;;;;11.17;8.80;;;14.10;99.90;;;;;;4915086;29;20194;-77
2021/09/26 05:21:42;;;;;;;10.00;9.00;;;14.10;99.90;;;;;;4899393;29;20694;-79
2021/09/26 05:24:07;;;;;;;7.70;6.83;;;14.10;99.90;;;;;;4915801;29;20658;-79
2021/09/26 05:26:33;;;;;;;10.63;8.27;;;14.10;99.90;;;;;;4916127;29;20631;-79
2021/09/26 05:29:01;;;;;;;9.50;7.40;;;14.10;99.90;;;;;;4916147;29;20734;-79
2021/09/26 05:31:27;;;;;;;8.70;7.80;;;14.00;99.90;;;;;;4915915;29;20211;-77
2021/09/26 05:33:53;;;;;;;9.47;8.53;;;14.00;99.90;;;;;;4916042;29;20430;-79
2021/09/26 05:36:18;;;;;;;11.93;7.90;;;14.10;99.90;;;;;;4914890;29;20209;-79
2021/09/26 05:38:44;;;;;;;8.27;7.47;;;14.10;99.90;;;;;;4916082;29;20543;-80
2021/09/26 05:41:09;;;;;;;8.43;7.53;;;14.10;99.90;;;;;;4915959;29;20254;-79
2021/09/26 05:43:35;;;;;;;14.40;11.40;;;14.10;99.90;;;;;;4915985;29;20761;-79
2021/09/26 05:46:00;;;;;;;14.33;10.70;;;14.10;99.90;;;;;;4915576;29;20225;-79
2021/09/26 05:48:26;;;;;;;12.70;10.27;;;14.20;99.90;;;;;;4915908;29;20648;-79
2021/09/26 05:50:52;;;;;;;9.43;7.47;;;14.50;99.90;;;;;;4915935;29;20567;-79
2021/09/26 05:53:18;;;;;;;8.97;7.63;;;14.90;99.90;;;;;;4916457;29;20182;-79
2021/09/26 05:55:44;;;;;;;9.63;6.67;;;15.40;99.90;;;;;;4915859;29;20174;-80
2021/09/26 05:58:09;;;;;;;7.57;6.87;;;16.00;99.90;;;;;;4915837;29;20899;-79
2021/09/26 06:00:35;;;;;;;9.97;6.80;;;16.40;99.90;;;;;;4915382;29;20174;-77
2021/09/26 06:03:00;;;;;;;8.60;7.33;;;17.00;99.90;;;;;;4915074;29;20569;-77
2021/09/26 06:05:26;;;;;;;8.23;6.70;;;17.50;99.90;;;;;;4915040;29;20186;-75
2021/09/26 06:07:51;;;;;;;9.43;7.00;;;17.90;99.90;;;;;;4915286;29;20233;-78
2021/09/26 06:10:17;;;;;;;8.70;6.83;;;18.20;99.90;;;;;;4915030;29;20174;-76
2021/09/26 06:12:43;;;;;;;8.43;6.33;;;18.70;99.90;;;;;;4915041;29;20198;-77
2021/09/26 06:15:10;;;;;;;10.50;7.30;;;19.10;99.90;;;;;;4914883;29;20590;-77
2021/09/26 06:17:36;;;;;;;11.80;6.20;;;19.30;99.90;;;;;;4915270;29;20206;-76
2021/09/26 06:20:03;;;;;;;8.00;6.07;;;19.60;99.90;;;;;;4915313;29;20793;-76
2021/09/26 06:22:29;;;;;;;7.30;6.57;;;20.00;99.90;;;;;;4915112;29;20529;-77
2021/09/26 06:24:56;;;;;;;8.07;7.20;;;20.20;99.90;;;;;;4915107;29;20425;-77
2021/09/26 06:27:23;;;;;;;7.10;6.40;;;20.50;99.90;;;;;;4914188;29;20763;-76
2021/09/26 06:29:49;;;;;;;7.40;6.60;;;20.70;99.90;;;;;;4915294;29;20421;-75
2021/09/26 06:32:15;;;;;;;10.97;7.77;;;21.20;99.90;;;;;;4914707;29;20457;-78
2021/09/26 06:34:40;;;;;;;7.20;6.23;;;21.50;99.90;;;;;;4915066;29;20230;-77
2021/09/26 06:37:06;;;;;;;9.63;6.77;;;21.90;99.90;;;;;;4914734;29;20629;-77
2021/09/26 06:39:33;;;;;;;8.77;6.97;;;22.00;99.90;;;;;;4915104;29;20181;-73
2021/09/26 06:41:58;;;;;;;8.27;7.03;;;22.50;99.90;;;;;;4913678;29;20442;-78
2021/09/26 06:44:24;;;;;;;7.67;6.30;;;23.00;99.90;;;;;;4915003;29;20522;-78
2021/09/26 06:46:50;;;;;;;8.40;6.97;;;23.20;99.90;;;;;;4914170;29;20183;-76
2021/09/26 06:49:15;;;;;;;6.20;5.70;;;23.70;99.90;;;;;;4921313;29;20265;-77
2021/09/26 06:51:41;;;;;;;11.83;7.33;;;23.90;99.90;;;;;;4900711;29;20972;-75
2021/09/26 06:54:07;;;;;;;8.27;7.43;;;24.10;99.90;;;;;;4916834;29;20201;-77
2021/09/26 06:56:33;;;;;;;7.70;6.60;;;24.10;99.90;;;;;;4918252;29;20206;-77
2021/09/26 06:58:58;;;;;;;9.63;6.40;;;24.00;99.90;;;;;;4918254;29;20186;-76
2021/09/26 07:01:24;;;;;;;7.73;7.00;;;24.10;99.90;;;;;;4917978;29;20228;-77
2021/09/26 07:03:49;;;;;;;8.03;6.50;;;24.30;99.90;;;;;;4918211;29;20536;-77
2021/09/26 07:06:15;;;;;;;6.90;5.30;;;24.50;99.90;;;;;;4917832;29;20908;-77
2021/09/26 07:08:40;;;;;;;8.63;5.77;;;24.50;99.90;;;;;;4918253;29;20178;-77
2021/09/26 07:11:06;;;;;;;9.10;5.90;;;24.40;99.90;;;;;;4918012;29;20663;-76
2021/09/26 07:13:31;;;;;;;6.53;5.93;;;24.60;99.90;;;;;;4918109;29;20565;-76
2021/09/26 07:15:57;;;;;;;9.10;6.27;;;24.70;99.90;;;;;;4917729;29;20174;-76
2021/09/26 07:18:23;;;;;;;11.13;6.00;;;24.40;99.90;;;;;;4917818;29;20237;-74
2021/09/26 07:20:48;;;;;;;11.57;6.43;;;24.30;99.90;;;;;;4917837;29;20647;-76
2021/09/26 07:23:14;;;;;;;6.70;5.50;;;24.40;99.90;;;;;;4917404;29;20205;-77
2021/09/26 07:25:39;;;;;;;8.03;6.07;;;24.40;99.90;;;;;;4917914;29;20184;-77
2021/09/26 07:28:05;;;;;;;7.97;5.40;;;24.30;99.90;;;;;;4917857;29;20189;-77
2021/09/26 07:30:31;;;;;;;7.50;5.90;;;24.40;99.90;;;;;;4917672;29;20174;-76
2021/09/26 07:32:56;;;;;;;15.20;6.97;;;24.30;99.90;;;;;;4917986;29;20208;-77
2021/09/26 07:35:22;;;;;;;7.07;5.37;;;24.10;99.90;;;;;;4917484;29;20178;-75
2021/09/26 07:37:48;;;;;;;8.20;5.63;;;23.80;99.90;;;;;;4917529;29;20624;-76
2021/09/26 07:40:13;;;;;;;9.20;5.93;;;23.50;99.90;;;;;;4917623;29;20657;-76
2021/09/26 07:42:39;;;;;;;8.43;6.37;;;23.20;99.90;;;;;;4917328;29;20201;-75
2021/09/26 07:45:08;;;;;;;9.40;6.90;;;22.80;99.90;;;;;;4917503;29;20285;-77
2021/09/26 07:47:35;;;;;;;9.53;7.23;;;22.70;99.90;;;;;;4917497;29;20535;-75
2021/09/26 07:50:01;;;;;;;8.97;6.33;;;22.50;99.90;;;;;;4900546;29;20549;-76
2021/09/26 07:52:27;;;;;;;9.87;6.50;;;22.20;99.90;;;;;;4917059;29;20536;-75
2021/09/26 07:54:53;;;;;;;11.10;5.67;;;22.20;99.90;;;;;;4917311;29;20422;-78
2021/09/26 07:57:22;;;;;;;7.10;6.40;;;22.10;99.90;;;;;;4916930;29;20475;-77
2021/09/26 07:59:48;;;;;;;10.07;6.40;;;22.00;99.90;;;;;;4916595;29;20667;-77
2021/09/26 08:02:14;;;;;;;13.40;7.17;;;21.90;99.90;;;;;;4916940;29;20434;-77
2021/09/26 08:04:40;;;;;;;9.53;7.03;;;21.80;99.90;;;;;;4917144;29;20166;-76
2021/09/26 08:07:05;;;;;;;7.37;6.63;;;21.80;99.90;;;;;;4917169;29;20440;-77
2021/09/26 08:09:31;;;;;;;7.13;6.43;;;21.70;99.90;;;;;;4916685;29;20644;-78
2021/09/26 08:11:56;;;;;;;12.53;6.50;;;21.60;99.90;;;;;;4916839;29;20201;-77
2021/09/26 08:14:22;;;;;;;10.30;6.50;;;21.80;99.90;;;;;;4916718;29;20190;-77
2021/09/26 08:16:48;;;;;;;8.23;6.40;;;21.60;99.90;;;;;;4915503;29;20272;-77
2021/09/26 08:19:13;;;;;;;7.27;6.40;;;21.50;99.90;;;;;;4916924;29;20193;-77
2021/09/26 08:21:39;;;;;;;11.07;7.07;;;21.50;99.90;;;;;;4916816;29;20882;-76
2021/09/26 08:24:07;;;;;;;6.80;5.60;;;21.70;99.90;;;;;;4916951;29;20178;-77
2021/09/26 08:26:33;;;;;;;11.23;6.73;;;22.10;99.90;;;;;;4916653;29;20178;-77
2021/09/26 08:28:59;;;;;;;9.40;6.87;;;22.40;99.90;;;;;;4916972;29;20430;-77
2021/09/26 08:31:25;;;;;;;11.70;6.23;;;22.60;99.90;;;;;;4915192;29;20501;-76
2021/09/26 08:33:50;;;;;;;7.40;6.00;;;22.70;99.90;;;;;;4915505;29;20272;-77
2021/09/26 08:36:16;;;;;;;7.20;6.50;;;22.60;99.90;;;;;;4916330;29;20178;-77
2021/09/26 08:38:42;;;;;;;10.43;7.20;;;22.40;99.90;;;;;;4916576;29;20171;-77
2021/09/26 08:41:08;;;;;;;8.80;6.90;;;22.30;99.90;;;;;;4916356;29;20465;-77
2021/09/26 08:43:34;;;;;;;7.40;6.23;;;22.10;99.90;;;;;;4916352;29;20205;-77
2021/09/26 08:46:00;;;;;;;6.50;5.90;;;22.10;99.90;;;;;;4920858;29;20230;-77
2021/09/26 08:48:28;;;;;;;10.37;6.20;;;21.80;99.90;;;;;;4923178;29;20422;-77
2021/09/26 08:50:54;;;;;;;7.50;5.77;;;21.80;99.90;;;;;;4915937;29;20202;-77
2021/09/26 08:53:24;;;;;;;8.70;5.80;;;21.90;99.90;;;;;;4915883;29;20418;-77
2021/09/26 08:55:50;;;;;;;12.63;5.90;;;22.00;99.90;;;;;;4914772;29;20604;-77
2021/09/26 08:58:17;;;;;;;8.37;6.13;;;22.20;99.90;;;;;;4915527;29;20461;-77
2021/09/26 09:00:43;;;;;;;9.10;5.53;;;22.30;99.90;;;;;;4916008;29;20506;-77
2021/09/26 09:03:13;;;;;;;10.53;6.00;;;22.50;99.90;;;;;;4914713;29;20849;-77
2021/09/26 09:05:40;;;;;;;10.13;5.90;;;22.50;99.90;;;;;;4915883;29;20675;-78
2021/09/26 09:08:15;;;;;;;7.13;6.20;;;22.60;99.90;;;;;;4915633;29;20418;-77
2021/09/26 09:10:43;;;;;;;7.60;5.90;;;22.60;99.90;;;;;;4915726;29;20420;-78
2021/09/26 09:13:11;;;;;;;8.07;6.13;;;22.50;99.90;;;;;;4915500;29;20414;-77
2021/09/26 09:15:38;;;;;;;10.13;5.70;;;22.40;99.90;;;;;;4915803;29;20414;-77
2021/09/26 09:18:04;;;;;;;12.80;5.87;;;22.20;99.90;;;;;;4915606;29;20468;-76
2021/09/26 09:20:32;;;;;;;6.30;5.70;;;22.10;99.90;;;;;;4915853;29;20497;-76
2021/09/26 09:23:06;;;;;;;7.00;5.90;;;22.00;99.90;;;;;;4915576;29;20509;-77
2021/09/26 09:25:57;;;;;;;14.23;6.90;;;21.80;99.90;;;;;;4915558;29;20422;-77
2021/09/26 09:28:27;;;;;;;6.47;5.77;;;21.80;99.90;;;;;;4915641;29;20434;-77
2021/09/26 09:31:02;;;;;;;9.00;6.30;;;21.80;99.90;;;;;;4915322;29;20483;-77
2021/09/26 09:33:42;;;;;;;8.37;6.00;;;21.80;99.90;;;;;;4915472;29;20425;-76
2021/09/26 09:36:24;;;;;;;11.10;6.80;;;21.80;99.90;;;;;;4915081;29;20790;-77
2021/09/26 09:38:52;;;;;;;8.83;6.90;;;21.90;99.90;;;;;;4915437;29;20573;-77
2021/09/26 09:41:36;;;;;;;8.97;8.03;;;21.90;99.90;;;;;;4915195;29;20442;-77
2021/09/26 09:44:03;;;;;;;9.30;7.20;;;21.80;99.90;;;;;;4915547;29;20421;-78
2021/09/26 09:46:35;;;;;;;9.20;8.20;;;21.70;99.90;;;;;;4915318;29;20524;-77
2021/09/26 09:49:27;;;;;;;8.83;8.03;;;21.60;99.90;;;;;;4915519;29;20418;-77
2021/09/26 09:51:59;;;;;;;11.20;8.13;;;21.50;99.90;;;;;;4912541;29;20449;-78
2021/09/26 09:54:32;;;;;;;10.47;9.17;;;21.50;99.90;;;;;;4915537;29;20513;-77
2021/09/26 09:57:09;;;;;;;13.60;8.40;;;21.40;99.90;;;;;;4914859;29;20987;-77
2021/09/26 09:59:36;;;;;;;10.10;9.10;;;21.40;99.90;;;;;;4915382;29;20481;-77
2021/09/26 10:02:03;;;;;;;11.63;9.43;;;21.30;99.90;;;;;;4914874;29;20529;-77
2021/09/26 10:04:40;;;;;;;9.20;8.30;;;21.30;99.90;;;;;;4915406;29;20947;-77
2021/09/26 10:07:26;;;;;;;10.20;8.80;;;21.20;99.90;;;;;;4914910;29;20417;-77
2021/09/26 10:09:53;;;;;;;11.33;9.03;;;21.20;99.90;;;;;;4915389;29;20410;-77
2021/09/26 10:12:22;;;;;;;8.23;7.43;;;21.10;99.90;;;;;;4914956;29;20450;-77
2021/09/26 10:14:51;;;;;;;9.33;8.43;;;21.00;99.90;;;;;;4915294;29;20457;-76
2021/09/26 10:17:18;;;;;;;9.47;8.43;;;21.00;99.90;;;;;;4915071;29;20481;-77
2021/09/26 10:19:44;;;;;;;12.30;10.10;;;20.90;99.90;;;;;;4915371;29;20860;-77
2021/09/26 10:22:15;;;;;;;10.03;9.00;;;20.80;99.90;;;;;;4915856;29;20441;-77
2021/09/26 10:24:42;;;;;;;13.73;8.83;;;20.70;99.90;;;;;;4919455;29;20410;-78
2021/09/26 10:27:11;;;;;;;11.23;9.10;;;20.60;99.90;;;;;;4918929;29;20785;-77
2021/09/26 10:29:38;;;;;;;11.23;9.33;;;20.50;99.90;;;;;;4919213;29;20497;-77
2021/09/26 10:32:06;;;;;;;10.43;9.30;;;20.40;99.90;;;;;;4918674;29;20454;-77
2021/09/26 10:34:33;;;;;;;10.80;9.70;;;20.30;99.90;;;;;;4918598;29;20474;-77
2021/09/26 10:37:02;;;;;;;11.03;9.93;;;20.20;99.90;;;;;;4918330;29;20826;-77
2021/09/26 10:39:29;;;;;;;13.80;10.20;;;20.20;99.90;;;;;;4918556;29;20410;-76
2021/09/26 10:42:09;;;;;;;13.53;11.00;;;20.20;99.90;;;;;;4918397;29;20433;-78
2021/09/26 10:44:42;;;;;;;11.40;10.10;;;20.40;99.90;;;;;;4918542;29;20436;-77
2021/09/26 10:47:23;;;;;;;11.83;10.53;;;20.50;99.90;;;;;;4918030;29;20501;-77
2021/09/26 10:49:53;;;;;;;12.80;10.00;;;20.60;99.90;;;;;;4918377;29;20429;-77
2021/09/26 10:52:36;;;;;;;11.33;10.23;;;20.60;99.90;;;;;;4917981;29;20449;-77
2021/09/26 10:55:29;;;;;;;14.00;10.57;;;20.70;99.90;;;;;;4917981;29;20454;-77
2021/09/26 10:58:00;;;;;;;12.23;10.93;;;20.70;99.90;;;;;;4918160;29;20477;-77
2021/09/26 11:00:37;;;;;;;10.93;9.83;;;20.60;99.90;;;;;;4918089;29;20482;-77
2021/09/26 11:03:28;;;;;;;9.90;8.90;;;20.60;99.90;;;;;;4918029;29;20410;-77
2021/09/26 11:05:54;;;;;;;12.20;8.77;;;20.50;99.90;;;;;;4911318;29;20437;-77
2021/09/26 11:08:25;;;;;;;11.63;9.40;;;20.50;99.90;;;;;;4917799;29;20426;-77
2021/09/26 11:10:56;;;;;;;14.07;9.40;;;20.30;99.90;;;;;;4917970;29;20437;-77
2021/09/26 11:13:29;;;;;;;9.03;8.13;;;20.20;99.90;;;;;;4917850;29;20473;-77
2021/09/26 11:16:03;;;;;;;10.40;8.17;;;20.20;99.90;;;;;;4917762;29;20445;-77
2021/09/26 11:18:42;;;;;;;9.90;8.87;;;20.00;99.90;;;;;;4917621;29;20460;-77
2021/09/26 11:21:07;;;;;;;9.50;8.60;;;20.00;99.90;;;;;;4917575;29;20442;-77
2021/09/26 11:23:35;;;;;;;10.53;8.30;;;20.00;99.90;;;;;;4917518;29;20421;-78
2021/09/26 11:26:03;;;;;;;9.83;8.83;;;19.90;99.90;;;;;;4917674;29;20549;-77
2021/09/26 11:28:38;;;;;;;9.63;8.63;;;19.90;99.90;;;;;;4917527;29;20426;-78
2021/09/26 11:31:29;;;;;;;9.60;8.17;;;19.80;99.90;;;;;;4917474;29;20600;-78
2021/09/26 11:33:57;;;;;;;17.17;9.60;;;19.80;99.90;;;;;;4900407;29;20538;-77
2021/09/26 11:36:26;;;;;;;11.67;9.30;;;19.70;99.90;;;;;;4917353;29;20426;-78
2021/09/26 11:38:52;;;;;;;11.63;9.43;;;19.70;99.90;;;;;;4917491;29;20782;-78
2021/09/26 11:41:35;;;;;;;11.00;9.87;;;19.70;99.90;;;;;;4917294;29;20434;-77
2021/09/26 11:44:05;;;;;;;10.10;9.10;;;19.80;99.90;;;;;;4917362;29;20421;-77
2021/09/26 11:46:31;;;;;;;10.87;8.73;;;19.80;99.90;;;;;;4917184;29;20425;-77
2021/09/26 11:49:05;;;;;;;12.30;9.90;;;19.80;99.90;;;;;;4917231;29;20786;-78
2021/09/26 11:51:33;;;;;;;10.70;9.60;;;19.90;99.90;;;;;;4917334;29;20501;-78
2021/09/26 11:54:00;;;;;;;11.33;9.87;;;19.90;99.90;;;;;;4917162;29;20497;-77
2021/09/26 11:56:31;;;;;;;13.53;10.10;;;20.00;99.90;;;;;;4917025;29;20832;-77
2021/09/26 11:59:04;;;;;;;10.17;9.13;;;19.90;99.90;;;;;;4917257;29;20418;-76
2021/09/26 12:01:39;;;;;;;10.37;8.13;;;20.00;99.90;;;;;;4899963;29;20457;-77
2021/09/26 12:04:16;;;;;;;9.93;8.93;;;20.10;99.90;;;;;;4917260;29;20428;-77
2021/09/26 12:06:48;;;;;;;10.60;8.13;;;20.20;99.90;;;;;;4916830;29;20513;-77
2021/09/26 12:09:36;;;;;;;8.90;8.10;;;20.30;99.90;;;;;;4916773;29;20509;-77
2021/09/26 12:12:05;;;;;;;9.33;8.20;;;20.60;99.90;;;;;;4916732;29;20438;-78
2021/09/26 12:14:31;;;;;;;9.57;8.67;;;20.90;99.90;;;;;;4916852;29;20430;-77
2021/09/26 12:17:00;;;;;;;8.70;7.80;;;21.20;99.90;;;;;;4915217;29;20465;-77
2021/09/26 12:19:26;;;;;;;8.93;8.13;;;21.50;99.90;;;;;;4916888;29;20178;-77
2021/09/26 12:22:25;;;;;;;9.57;8.70;;;21.60;99.90;;;;;;4916609;29;20571;-77
2021/09/26 12:24:55;;;;;;;7.90;7.20;;;21.90;99.90;;;;;;4905757;29;20433;-78
2021/09/26 12:27:29;;;;;;;11.47;7.40;;;22.30;99.90;;;;;;4916329;29;20422;-78
2021/09/26 12:30:15;;;;;;;7.80;7.03;;;22.50;99.90;;;;;;4916735;29;20426;-78
2021/09/26 12:32:55;;;;;;;8.03;7.27;;;22.60;99.90;;;;;;4899387;29;20467;-77
2021/09/26 12:35:48;;;;;;;7.40;6.80;;;22.90;99.90;;;;;;4916309;29;20423;-78
2021/09/26 12:38:24;;;;;;;7.50;6.80;;;23.10;99.90;;;;;;4914138;29;20477;-78
2021/09/26 12:40:58;;;;;;;6.97;6.47;;;23.40;99.90;;;;;;4916608;29;20457;-78
2021/09/26 12:43:30;;;;;;;7.47;5.73;;;23.50;99.90;;;;;;4916216;29;20938;-78
2021/09/26 12:45:58;;;;;;;6.97;5.80;;;23.60;99.90;;;;;;4915824;29;20501;-77
2021/09/26 12:48:24;;;;;;;7.47;6.87;;;23.70;99.90;;;;;;4915993;29;20433;-77
2021/09/26 12:50:54;;;;;;;6.50;5.93;;;23.60;99.90;;;;;;4916334;29;20437;-77
2021/09/26 12:53:27;;;;;;;8.77;7.63;;;23.60;99.90;;;;;;4915919;29;20950;-76
2021/09/26 12:55:55;;;;;;;7.27;6.60;;;23.70;99.90;;;;;;4899160;29;20939;-78
2021/09/26 12:58:42;;;;;;;7.13;6.53;;;23.70;99.90;;;;;;4915911;29;20457;-78
2021/09/26 13:01:16;;;;;;;7.03;6.43;;;23.80;99.90;;;;;;4916151;29;20819;-78
2021/09/26 13:03:51;;;;;;;6.90;6.40;;;23.80;99.90;;;;;;4916011;29;20421;-79
2021/09/26 13:06:29;;;;;;;6.53;5.90;;;23.80;99.90;;;;;;4915862;29;20418;-77
2021/09/26 13:08:55;;;;;;;8.07;7.13;;;23.70;99.90;;;;;;4916232;29;20421;-78
2021/09/26 13:11:27;;;;;;;7.17;6.60;;;23.70;99.90;;;;;;4898762;29;20446;-77
2021/09/26 13:14:17;;;;;;;8.60;7.10;;;23.60;99.90;;;;;;4916056;29;20418;-77
2021/09/26 13:16:43;;;;;;;9.10;7.23;;;23.50;99.90;;;;;;4915526;29;20485;-78
2021/09/26 13:19:35;;;;;;;8.17;7.40;;;23.50;99.90;;;;;;4916983;29;20418;-77
2021/09/26 13:22:09;;;;;;;8.60;7.70;;;23.50;99.90;;;;;;4916065;29;20194;-77
2021/09/26 13:24:42;;;;;;;8.67;7.87;;;23.40;99.90;;;;;;4916348;29;20497;-77
2021/09/26 13:27:34;;;;;;;9.20;7.70;;;23.30;99.90;;;;;;4915455;29;20781;-77
2021/09/26 13:30:05;;;;;;;7.77;6.97;;;23.40;99.90;;;;;;4915577;29;20446;-78
2021/09/26 13:32:39;;;;;;;7.60;6.90;;;23.50;99.90;;;;;;4915200;29;20466;-77
2021/09/26 13:35:17;;;;;;;8.70;7.80;;;23.50;99.90;;;;;;4915518;29;20424;-77
2021/09/26 13:38:00;;;;;;;8.33;7.60;;;23.40;99.90;;;;;;4915418;29;20867;-77
2021/09/26 13:40:31;;;;;;;7.13;6.53;;;23.40;99.90;;;;;;4915807;29;20422;-77
2021/09/26 13:43:00;;;;;;;9.17;6.73;;;23.40;99.90;;;;;;4915478;29;20493;-77
2021/09/26 13:45:26;;;;;;;10.50;7.97;;;23.30;99.90;;;;;;4915258;29;20414;-77
2021/09/26 13:47:52;;;;;;;8.00;6.43;;;23.20;99.90;;;;;;4915480;29;20425;-78
2021/09/26 13:50:18;;;;;;;7.73;7.03;;;23.30;99.90;;;;;;4915161;29;20185;-77
2021/09/26 13:52:44;;;;;;;7.30;6.60;;;23.30;99.90;;;;;;4915151;29;20686;-78
2021/09/26 13:55:11;;;;;;;7.80;7.10;;;23.30;99.90;;;;;;4915318;29;20426;-76
2021/09/26 13:57:36;;;;;;;8.40;7.50;;;23.40;99.90;;;;;;4914468;29;20461;-78
2021/09/26 14:00:05;;;;;;;8.23;7.53;;;23.50;99.90;;;;;;4915410;29;20418;-77
2021/09/26 14:02:31;;;;;;;7.97;7.27;;;23.50;99.90;;;;;;4913961;29;20233;-77
2021/09/26 14:04:56;;;;;;;8.57;7.77;;;23.60;99.90;;;;;;4915297;29;21009;-77
2021/09/26 14:07:22;;;;;;;8.33;7.47;;;23.70;99.90;;;;;;4915121;29;20721;-78
2021/09/26 14:09:48;;;;;;;8.10;7.30;;;23.70;99.90;;;;;;4915189;29;20210;-77
2021/09/26 14:12:15;;;;;;;7.73;7.03;;;23.80;99.90;;;;;;4914774;29;20260;-77
2021/09/26 14:14:44;;;;;;;8.40;7.63;;;23.90;99.90;;;;;;4915357;29;20256;-78
2021/09/26 14:17:10;;;;;;;7.73;7.03;;;23.90;99.90;;;;;;4914772;29;20548;-78
2021/09/26 14:19:36;;;;;;;7.83;6.87;;;23.80;99.90;;;;;;4915165;29;20438;-76
2021/09/26 14:22:02;;;;;;;8.80;7.60;;;23.70;99.90;;;;;;4914902;29;20872;-77
2021/09/26 14:24:28;;;;;;;10.00;7.97;;;23.70;99.90;;;;;;4914969;29;20599;-77
2021/09/26 14:26:54;;;;;;;7.50;6.20;;;23.50;99.90;;;;;;4914923;29;20531;-78
2021/09/26 14:29:20;;;;;;;7.43;6.73;;;23.50;99.90;;;;;;4897763;29;20532;-77
2021/09/26 14:31:49;;;;;;;6.93;6.23;;;23.50;99.90;;;;;;4914712;29;20659;-78
2021/09/26 14:34:16;;;;;;;6.70;6.13;;;23.50;99.90;;;;;;4914652;29;20472;-77
2021/09/26 14:36:41;;;;;;;6.20;5.70;;;23.40;99.90;;;;;;4914837;29;20975;-78
2021/09/26 14:39:07;;;;;;;5.57;5.17;;;23.50;99.90;;;;;;4914845;29;20421;-78
2021/09/26 14:41:33;;;;;;;6.10;5.70;;;23.40;99.90;;;;;;4914984;29;20191;-77
2021/09/26 14:44:01;;;;;;;7.50;6.80;;;23.50;99.90;;;;;;4914869;29;20213;-78
2021/09/26 14:46:28;;;;;;;11.20;7.70;;;23.50;99.90;;;;;;4914913;29;20422;-77
2021/09/26 14:48:53;;;;;;;8.27;7.57;;;23.20;99.90;;;;;;4914968;29;20414;-77
2021/09/26 14:51:20;;;;;;;8.30;7.50;;;23.00;99.90;;;;;;4914732;29;20493;-78
2021/09/26 14:53:47;;;;;;;10.23;8.13;;;22.70;99.90;;;;;;4914883;29;20186;-77
2021/09/26 14:56:15;;;;;;;8.63;8.00;;;22.50;99.90;;;;;;4914610;29;20406;-77
2021/09/26 14:58:41;;;;;;;7.83;7.03;;;22.20;99.90;;;;;;4914615;29;20863;-78
2021/09/26 15:01:06;;;;;;;8.37;7.67;;;22.00;99.90;;;;;;4914471;29;20533;-77
2021/09/26 15:03:32;;;;;;;7.27;6.27;;;21.80;99.90;;;;;;4914630;29;20321;-78
2021/09/26 15:05:57;;;;;;;8.60;7.80;;;21.60;99.90;;;;;;4913430;29;20189;-77
2021/09/26 15:08:23;;;;;;;8.30;7.50;;;21.60;99.90;;;;;;4915820;29;20597;-77
2021/09/26 15:10:48;;;;;;;7.20;6.60;;;21.60;99.90;;;;;;4918009;29;20553;-77
2021/09/26 15:13:14;;;;;;;9.83;5.90;;;21.60;99.90;;;;;;4917717;29;20178;-77
2021/09/26 15:15:40;;;;;;;6.90;6.40;;;21.60;99.90;;;;;;4917915;29;20234;-77
2021/09/26 15:18:07;;;;;;;7.33;6.63;;;21.50;99.90;;;;;;4917729;29;20202;-77
2021/09/26 15:20:35;;;;;;;6.93;6.33;;;21.50;99.90;;;;;;4917856;29;20473;-76
2021/09/26 15:23:02;;;;;;;6.40;5.80;;;21.40;99.90;;;;;;4917703;29;20418;-78
2021/09/26 15:25:30;;;;;;;6.93;6.33;;;21.20;99.90;;;;;;4900698;29;20422;-76
2021/09/26 15:27:56;;;;;;;6.37;5.77;;;21.10;99.90;;;;;;4917823;29;20795;-77
2021/09/26 15:30:22;;;;;;;8.30;7.50;;;21.00;99.90;;;;;;4917763;29;20418;-77
2021/09/26 15:32:48;;;;;;;7.40;6.70;;;20.90;99.90;;;;;;4917342;29;20450;-77
2021/09/26 15:35:15;;;;;;;7.77;7.17;;;20.80;99.90;;;;;;4917647;29;20414;-77
2021/09/26 15:37:42;;;;;;;7.60;6.80;;;20.80;99.90;;;;;;4917411;29;20698;-77
2021/09/26 15:40:14;;;;;;;6.93;6.23;;;20.70;99.90;;;;;;4917509;29;20411;-77
2021/09/26 15:42:40;;;;;;;7.23;6.50;;;20.60;99.90;;;;;;4917477;29;20914;-77
2021/09/26 15:45:19;;;;;;;7.20;6.50;;;20.60;99.90;;;;;;4917541;29;20498;-77
2021/09/26 15:47:46;;;;;;;8.40;7.60;;;20.60;99.90;;;;;;4917304;29;20662;-78
2021/09/26 15:50:14;;;;;;;7.73;7.03;;;20.40;99.90;;;;;;4917290;29;20414;-77
2021/09/26 15:52:40;;;;;;;8.03;7.30;;;20.40;99.90;;;;;;4916989;29;20533;-77
2021/09/26 15:55:07;;;;;;;7.67;6.87;;;20.20;99.90;;;;;;4917460;29;20425;-77
2021/09/26 15:57:33;;;;;;;7.13;6.43;;;20.20;99.90;;;;;;4916904;29;20466;-78
2021/09/26 15:59:59;;;;;;;6.80;6.20;;;20.20;99.90;;;;;;4917363;29;20425;-77
2021/09/26 16:02:25;;;;;;;7.03;6.43;;;20.10;99.90;;;;;;4917035;29;20202;-77
2021/09/26 16:04:51;;;;;;;8.30;7.60;;;20.10;99.90;;;;;;4917320;29;20462;-78
2021/09/26 16:07:16;;;;;;;8.67;7.87;;;20.00;99.90;;;;;;4916832;29;20938;-76
2021/09/26 16:09:42;;;;;;;8.90;7.63;;;19.90;99.90;;;;;;4915888;29;20185;-77
2021/09/26 16:12:07;;;;;;;8.33;7.53;;;19.90;99.90;;;;;;4917002;29;20288;-77
2021/09/26 16:14:33;;;;;;;9.20;8.20;;;19.80;99.90;;;;;;4917224;29;20205;-77
2021/09/26 16:16:58;;;;;;;8.67;7.87;;;19.80;99.90;;;;;;4916831;29;20204;-78
2021/09/26 16:19:24;;;;;;;9.00;8.30;;;19.70;99.90;;;;;;4916241;29;20587;-76
2021/09/26 16:21:49;;;;;;;11.33;8.87;;;19.60;99.90;;;;;;4915718;29;20615;-77
2021/09/26 16:24:15;;;;;;;13.80;10.67;;;19.50;99.90;;;;;;4916806;29;20175;-76
2021/09/26 16:26:40;;;;;;;10.53;9.43;;;19.50;99.90;;;;;;4916773;29;20178;-77
2021/09/26 16:29:07;;;;;;;9.90;9.00;;;19.50;99.90;;;;;;4916661;29;20180;-77
2021/09/26 16:31:33;;;;;;;11.23;8.70;;;19.50;99.90;;;;;;4916813;29;20307;-77
2021/09/26 16:33:59;;;;;;;10.50;9.30;;;19.50;99.90;;;;;;4916893;29;20418;-76
2021/09/26 16:36:27;;;;;;;12.70;9.67;;;19.40;99.90;;;;;;4899704;29;20190;-77
2021/09/26 16:38:52;;;;;;;10.63;9.53;;;19.40;99.90;;;;;;4916631;29;20446;-78
2021/09/26 16:41:19;;;;;;;11.20;10.10;;;19.30;99.90;;;;;;4916788;29;20463;-77
2021/09/26 16:43:44;;;;;;;12.50;11.20;;;19.30;99.90;;;;;;4916844;29;20182;-78
2021/09/26 16:46:11;;;;;;;10.97;9.40;;;19.20;99.90;;;;;;4899446;29;20585;-77
2021/09/26 16:48:46;;;;;;;10.83;9.70;;;19.20;99.90;;;;;;4916378;29;20182;-77
2021/09/26 16:51:15;;;;;;;13.27;10.63;;;19.20;99.90;;;;;;4916410;29;20511;-77
2021/09/26 16:53:41;;;;;;;10.40;9.30;;;19.10;99.90;;;;;;4916456;29;20505;-77
2021/09/26 16:56:07;;;;;;;11.20;10.10;;;19.10;99.90;;;;;;4916425;29;20449;-77
2021/09/26 16:58:33;;;;;;;14.23;10.43;;;19.10;99.90;;;;;;4916107;29;20558;-77
2021/09/26 17:00:59;;;;;;;12.10;10.80;;;19.10;99.90;;;;;;4916304;29;20557;-77
2021/09/26 17:03:25;;;;;;;11.90;10.70;;;19.00;99.90;;;;;;4916144;29;20181;-78
2021/09/26 17:05:52;;;;;;;11.40;10.30;;;19.00;99.90;;;;;;4916734;29;20911;-77
2021/09/26 17:08:18;;;;;;;12.40;10.80;;;19.00;99.90;;;;;;4916804;29;20174;-77
2021/09/26 17:10:44;;;;;;;14.23;10.83;;;18.90;99.90;;;;;;4917436;29;20430;-76
2021/09/26 17:13:11;;;;;;;12.60;11.40;;;18.90;99.90;;;;;;4915794;29;20675;-77
2021/09/26 17:15:38;;;;;;;11.93;10.57;;;18.90;99.90;;;;;;4915867;29;20421;-78
2021/09/26 17:18:06;;;;;;;12.50;11.30;;;18.80;99.90;;;;;;4915602;29;20497;-78
2021/09/26 17:20:38;;;;;;;13.70;11.60;;;18.80;99.90;;;;;;4915924;29;20508;-76